createdAt,value
2019-05-15T06:22:27.701Z,9.13
2019-05-15T06:23:05.603Z,11.88
2019-05-15T06:24:25.303Z,11.80
2019-05-15T06:25:05.032Z,11.15
2019-05-15T06:25:42.472Z,101.67
2019-05-15T06:26:58.610Z,9.80
2019-05-15T06:27:35.534Z,12.50
2019-05-15T06:28:14.682Z,4.30
2019-05-15T06:28:52.417Z,6.97
2019-05-15T06:29:29.607Z,30.92
2019-05-15T06:30:09.346Z,7.30
2019-05-15T06:30:48.627Z,10.98
2019-05-15T06:31:28.110Z,5.12
2019-05-15T06:32:05.003Z,14.65
2019-05-15T06:33:00.896Z,11.12
2019-05-15T06:33:23.274Z,18.20
2019-05-15T06:34:00.792Z,17.45
2019-05-15T06:34:48.528Z,101.45
2019-05-15T06:36:08.652Z,9.20
2019-05-15T06:36:44.688Z,10.05
2019-05-15T06:37:22.288Z,10.78
2019-05-15T06:37:59.221Z,114.50
2019-05-15T06:38:39.013Z,84.80
2019-05-15T06:39:17.912Z,179.00
2019-05-15T06:39:53.723Z,228.12
2019-05-15T06:40:31.891Z,150.22
2019-05-15T06:41:08.934Z,15.10
2019-05-15T06:41:48.242Z,13.68
2019-05-15T06:42:25.276Z,14.70
2019-05-15T06:43:02.448Z,21.37
2019-05-15T06:43:41.640Z,11.05
2019-05-15T06:44:21.681Z,12.60
2019-05-15T06:45:00.009Z,8.23
2019-05-15T06:45:38.016Z,10.63
2019-05-15T06:46:15.712Z,8.03
2019-05-15T06:46:53.250Z,11.20
2019-05-15T17:03:28.809Z,25.70
2019-05-15T17:04:05.799Z,11.97
2019-05-15T17:04:44.721Z,10.28
2019-05-15T17:05:22.051Z,84.17
2019-05-15T17:05:59.530Z,16.82
2019-05-15T17:06:38.677Z,3.55
2019-05-15T17:07:15.020Z,5.42
2019-05-15T17:07:52.729Z,13.10
2019-05-15T17:08:32.244Z,15.00
2019-05-15T17:09:48.393Z,8.75
2019-05-15T17:11:02.342Z,4.25
2019-05-15T17:11:40.435Z,4.65
2019-05-15T17:12:19.353Z,5.47
2019-05-15T17:12:58.496Z,8.18
2019-05-15T17:13:35.455Z,2.08
2019-05-15T17:14:13.623Z,6.30
2019-05-15T17:14:51.571Z,5.12
2019-05-15T17:15:29.533Z,7.65
2019-05-15T17:16:07.757Z,5.75
2019-05-15T17:16:47.944Z,5.35
2019-05-15T17:17:25.631Z,6.28
2019-05-15T17:18:02.380Z,5.87
2019-05-15T17:18:39.468Z,5.78
2019-05-15T17:19:54.746Z,3.58
2019-05-15T17:20:32.360Z,5.50
2019-05-15T17:21:10.141Z,8.68
2019-05-15T17:21:48.619Z,3.02
2019-05-15T17:22:25.449Z,7.12
2019-05-15T17:23:04.304Z,11.55
2019-05-15T17:23:41.631Z,11.68
2019-05-15T17:24:19.508Z,6.47
2019-05-15T17:24:59.366Z,9.13
2019-05-15T17:25:38.219Z,5.78
2019-05-15T17:26:53.305Z,4.85
2019-05-15T17:28:46.790Z,6.12
2019-05-15T17:29:23.946Z,3.75
2019-05-15T17:30:00.649Z,4.65
2019-05-15T17:30:48.723Z,9.15
2019-05-15T17:31:28.766Z,6.40
2019-05-15T17:32:18.405Z,6.92
2019-05-15T17:33:03.817Z,7.03
2019-05-15T17:33:42.468Z,9.78
2019-05-15T17:35:00.545Z,5.15
2019-05-15T17:35:40.899Z,10.40
2019-05-15T17:36:18.439Z,25.33
2019-05-15T17:36:58.160Z,5.85
2019-05-15T17:37:40.324Z,6.45
2019-05-15T17:38:18.253Z,5.55
2019-05-15T17:38:58.060Z,18.70
2019-05-15T17:40:50.288Z,3.02
2019-05-15T17:41:28.574Z,6.28
2019-05-15T17:42:05.436Z,55.80
